East Freedom, Pennsylvania
Current Conditions -  °F | °C
As of 2:53 AM on Monday 24 Nov 2014 (Local Time) from KAOO Reporting Station
Overcast Overcast  
Wind Chill: 53°   Ceiling: 800
Heat Index: 53°   Visibility: 10mi
Dew Point: 51°   Wind: 10mph
Humidity: 93%   Direction: 180°S
Pressure: 29.57"   Gusts: 21mph
Location:  40.36°N, 78.43°W
Report Text: KAOO 240753Z AUTO 18009G18KT 10SM OVC008 12/11 A2957 RMK AO2 RAE48 PRESFR SLP011 P0001 T01170106
Loading
Personal Weather Stations






























Interactive Weather Map New forecast layout! Learn more

10-Day Weather Forecast

Advertisements
Track Severe Weather on mobile